createdAt,value
2022-11-20T00:02:36.420Z,4.50
2022-11-20T00:05:40.456Z,4.44
2022-11-20T00:08:43.863Z,4.45
2022-11-20T00:11:46.537Z,4.50
2022-11-20T00:14:49.131Z,4.51
2022-11-20T00:17:52.101Z,4.49
2022-11-20T00:21:01.890Z,4.57
2022-11-20T00:24:04.876Z,4.49
2022-11-20T00:27:07.492Z,4.53
2022-11-20T00:30:13.702Z,4.58
2022-11-20T00:33:17.593Z,4.54
2022-11-20T00:36:23.145Z,4.46
2022-11-20T00:39:25.769Z,4.61
2022-11-20T00:42:28.414Z,4.55
2022-11-20T00:45:31.041Z,4.55
2022-11-20T00:48:33.890Z,4.59
2022-11-20T00:51:37.832Z,4.55
2022-11-20T00:54:40.481Z,4.57
2022-11-20T00:57:43.107Z,4.45
2022-11-20T01:00:45.763Z,4.55
2022-11-20T01:03:51.636Z,4.44
2022-11-20T01:06:55.627Z,4.22
2022-11-20T01:09:58.278Z,4.36
2022-11-20T01:13:14.774Z,4.33
2022-11-20T01:16:19.400Z,4.34
2022-11-20T01:19:25.403Z,4.47
2022-11-20T01:22:29.530Z,4.48
2022-11-20T01:25:32.282Z,4.42
2022-11-20T01:28:35.595Z,4.44
2022-11-20T01:31:39.400Z,4.12
2022-11-20T01:34:42.029Z,4.13
2022-11-20T01:37:46.020Z,4.18
2022-11-20T01:40:56.170Z,4.23
2022-11-20T01:43:57.828Z,4.30
2022-11-20T01:47:04.408Z,4.38
2022-11-20T01:50:14.965Z,4.44
2022-11-20T01:53:22.538Z,4.30
2022-11-20T01:56:27.194Z,4.29
2022-11-20T01:59:31.234Z,4.28
2022-11-20T02:02:34.516Z,4.36
2022-11-20T02:05:43.030Z,4.34
2022-11-20T02:08:47.015Z,4.36
2022-11-20T02:11:49.742Z,4.47
2022-11-20T02:14:51.425Z,4.37
2022-11-20T02:17:55.127Z,4.41
2022-11-20T02:21:03.876Z,4.39
2022-11-20T02:24:11.204Z,4.37
2022-11-20T02:27:16.029Z,4.37
2022-11-20T02:30:19.407Z,4.35
2022-11-20T02:33:22.027Z,4.33
2022-11-20T02:36:28.045Z,4.48
2022-11-20T02:39:32.027Z,4.50
2022-11-20T02:42:34.638Z,4.47
2022-11-20T02:45:37.458Z,4.44
2022-11-20T02:48:40.086Z,4.36
2022-11-20T02:51:42.683Z,4.52
2022-11-20T02:54:46.818Z,4.57
2022-11-20T02:57:49.486Z,4.34
2022-11-20T03:00:52.191Z,4.16
2022-11-20T03:03:55.716Z,4.45
2022-11-20T03:06:58.449Z,4.31
2022-11-20T03:10:02.503Z,4.23
2022-11-20T03:13:05.099Z,4.27
2022-11-20T03:16:09.857Z,4.36
2022-11-20T03:19:13.246Z,4.20
2022-11-20T03:22:15.895Z,4.35
2022-11-20T03:25:19.928Z,3.94
2022-11-20T03:28:22.579Z,4.07
2022-11-20T03:31:27.650Z,4.20
2022-11-20T03:34:30.294Z,4.37
2022-11-20T03:37:33.726Z,4.39
2022-11-20T03:40:37.769Z,4.52
2022-11-20T03:43:41.075Z,4.39
2022-11-20T03:46:43.702Z,4.41
2022-11-20T03:49:46.329Z,4.54
2022-11-20T03:52:48.972Z,4.47
2022-11-20T03:55:54.128Z,4.57
2022-11-20T03:58:57.040Z,4.49
2022-11-20T04:01:59.691Z,4.35
2022-11-20T04:05:02.394Z,4.39
2022-11-20T04:08:05.294Z,4.54
2022-11-20T04:11:14.062Z,4.53
2022-11-20T04:14:17.597Z,4.55
2022-11-20T04:17:20.249Z,4.35
2022-11-20T04:20:22.928Z,4.23
2022-11-20T04:23:28.695Z,4.15
2022-11-20T04:26:33.153Z,4.36
2022-11-20T04:29:35.794Z,4.35
2022-11-20T04:32:38.431Z,4.26
2022-11-20T04:35:41.122Z,4.43
2022-11-20T04:38:43.754Z,4.51
2022-11-20T04:41:47.738Z,4.36
2022-11-20T04:44:50.362Z,4.12
2022-11-20T04:47:53.021Z,4.32
2022-11-20T04:50:56.087Z,4.50
2022-11-20T04:53:59.007Z,4.46
2022-11-20T04:57:02.986Z,4.50
2022-11-20T05:00:06.747Z,4.30
2022-11-20T05:03:09.430Z,4.30
2022-11-20T05:06:13.714Z,4.39
2022-11-20T05:09:16.385Z,4.33
2022-11-20T05:12:20.336Z,4.30
2022-11-20T05:15:22.970Z,4.36
2022-11-20T05:18:25.779Z,4.36
2022-11-20T05:21:28.487Z,4.34
2022-11-20T05:24:31.119Z,4.45
2022-11-20T05:27:35.162Z,4.48
2022-11-20T05:30:37.765Z,4.50
2022-11-20T05:33:42.350Z,4.42
2022-11-20T05:36:44.943Z,4.57
2022-11-20T05:39:47.555Z,4.47
2022-11-20T05:42:51.541Z,4.59
2022-11-20T05:45:55.011Z,4.55
2022-11-20T05:48:58.237Z,4.36
2022-11-20T05:52:00.933Z,4.50
2022-11-20T05:55:03.663Z,4.35
2022-11-20T05:58:07.618Z,4.49
2022-11-20T06:01:12.889Z,4.38
2022-11-20T06:04:15.531Z,4.36
2022-11-20T06:07:18.161Z,4.27
2022-11-20T06:10:20.828Z,4.44
2022-11-20T06:13:25.135Z,4.48
2022-11-20T06:16:27.753Z,4.41
2022-11-20T06:19:30.390Z,4.31
2022-11-20T06:22:34.390Z,4.18
2022-11-20T06:25:39.627Z,4.14
2022-11-20T06:28:43.693Z,4.15
2022-11-20T06:31:46.286Z,4.11
2022-11-20T06:34:48.906Z,3.84
2022-11-20T06:37:51.564Z,3.92
2022-11-20T06:40:54.431Z,3.95
2022-11-20T06:43:58.505Z,4.08
2022-11-20T06:47:01.948Z,4.04
2022-11-20T06:50:05.152Z,3.94
2022-11-20T06:53:07.764Z,3.92
2022-11-20T06:56:10.577Z,4.10
2022-11-20T06:59:14.702Z,4.08
2022-11-20T07:02:17.434Z,4.13
2022-11-20T07:05:20.020Z,4.12
2022-11-20T07:08:22.622Z,4.21
2022-11-20T07:11:25.740Z,4.23
2022-11-20T07:14:29.778Z,4.27
2022-11-20T07:17:32.379Z,4.31
2022-11-20T07:20:35.051Z,4.29
2022-11-20T07:23:37.996Z,4.41
2022-11-20T07:26:40.674Z,4.35
2022-11-20T07:29:44.649Z,4.41
2022-11-20T07:32:49.065Z,4.49
2022-11-20T07:35:51.697Z,4.47
2022-11-20T07:38:55.273Z,4.48
2022-11-20T07:41:57.893Z,4.51
2022-11-20T07:45:01.855Z,4.57
2022-11-20T07:48:04.781Z,4.50
2022-11-20T07:51:14.348Z,4.50
2022-11-20T07:54:17.165Z,4.53
2022-11-20T07:57:22.127Z,3.97
2022-11-20T08:00:29.171Z,4.20
2022-11-20T08:03:31.914Z,4.32
2022-11-20T08:06:34.898Z,4.37
2022-11-20T08:09:37.537Z,4.53
2022-11-20T08:13:03.652Z,4.69
2022-11-20T08:16:08.000Z,4.35
2022-11-20T08:19:10.847Z,4.60
2022-11-20T08:22:13.481Z,4.76
2022-11-20T08:25:16.258Z,4.58
2022-11-20T08:28:21.576Z,4.36
2022-11-20T08:31:27.724Z,4.51
2022-11-20T08:34:30.408Z,4.50
2022-11-20T08:37:33.015Z,4.21
2022-11-20T08:40:35.723Z,4.08
2022-11-20T08:43:38.343Z,3.94
2022-11-20T08:46:44.437Z,4.14
2022-11-20T08:49:47.063Z,4.23
2022-11-20T08:52:49.705Z,4.44
2022-11-20T08:55:52.338Z,4.54
2022-11-20T08:59:20.155Z,4.43
2022-11-20T09:02:18.891Z,4.55
2022-11-20T09:05:21.511Z,4.73
2022-11-20T09:08:24.128Z,4.55
2022-11-20T09:11:26.890Z,4.60
2022-11-20T09:14:30.964Z,4.68
2022-11-20T09:17:34.931Z,4.83
2022-11-20T09:20:37.746Z,4.80
2022-11-20T09:23:41.663Z,4.86
2022-11-20T09:26:44.277Z,4.22
2022-11-20T09:29:46.889Z,4.65
2022-11-20T09:32:50.915Z,4.87
2022-11-20T09:35:53.553Z,4.93
2022-11-20T09:38:57.265Z,4.61
2022-11-20T09:42:27.496Z,4.89
2022-11-20T09:45:52.354Z,4.63
2022-11-20T09:49:07.647Z,4.57
2022-11-20T09:52:23.054Z,4.69
2022-11-20T09:55:26.509Z,4.87
2022-11-20T09:58:33.491Z,5.02
2022-11-20T10:01:39.175Z,5.15
2022-11-20T10:04:49.734Z,5.30
2022-11-20T10:07:57.288Z,5.23
2022-11-20T10:11:10.174Z,5.18
2022-11-20T10:14:22.815Z,4.85
2022-11-20T10:17:43.455Z,4.84
2022-11-20T10:20:51.892Z,4.71
2022-11-20T10:24:14.768Z,4.67
2022-11-20T10:27:58.006Z,4.50
2022-11-20T10:31:04.699Z,4.34
2022-11-20T10:34:19.367Z,4.46
2022-11-20T10:37:28.842Z,4.55
2022-11-20T10:40:38.122Z,4.48
2022-11-20T10:43:41.866Z,4.37
2022-11-20T10:46:46.832Z,4.57
2022-11-20T10:49:55.032Z,4.67
2022-11-20T10:53:24.653Z,4.76
2022-11-20T10:56:35.986Z,5.00
2022-11-20T10:59:54.921Z,5.09
2022-11-20T11:03:03.293Z,4.76
2022-11-20T11:06:11.373Z,4.91
2022-11-20T11:09:22.049Z,4.92
2022-11-20T11:12:27.192Z,5.29
2022-11-20T11:15:31.708Z,5.38
2022-11-20T11:18:36.342Z,5.46
2022-11-20T11:21:44.246Z,5.23
2022-11-20T11:24:55.470Z,5.15
2022-11-20T11:28:00.116Z,5.31
2022-11-20T11:31:02.756Z,5.21
2022-11-20T11:34:07.392Z,5.43
2022-11-20T11:37:18.430Z,5.43
2022-11-20T11:40:25.281Z,5.27
2022-11-20T11:43:48.669Z,5.42
2022-11-20T11:46:55.755Z,5.41
2022-11-20T11:50:17.591Z,5.25
2022-11-20T11:53:22.521Z,4.99
2022-11-20T11:56:27.126Z,4.84
2022-11-20T11:59:43.794Z,4.85
2022-11-20T12:02:58.508Z,4.84
2022-11-20T12:06:07.439Z,4.94
2022-11-20T12:09:12.904Z,4.81
2022-11-20T12:12:21.967Z,4.59
2022-11-20T12:15:30.734Z,5.00
2022-11-20T12:18:33.728Z,5.06
2022-11-20T12:21:49.822Z,5.17
2022-11-20T12:25:00.887Z,5.31
2022-11-20T12:28:25.701Z,4.88
2022-11-20T12:31:45.436Z,4.87
2022-11-20T12:35:00.069Z,5.13
2022-11-20T12:38:21.117Z,5.48
2022-11-20T12:41:59.174Z,5.50
2022-11-20T12:45:16.726Z,5.38
2022-11-20T12:48:46.399Z,5.19
2022-11-20T12:52:19.391Z,4.75
2022-11-20T12:55:47.886Z,5.14
2022-11-20T12:59:00.810Z,5.37
2022-11-20T13:02:20.977Z,5.08
2022-11-20T13:05:30.645Z,5.24
2022-11-20T13:08:37.240Z,5.25
2022-11-20T13:11:45.957Z,5.08
2022-11-20T13:14:56.325Z,5.15
2022-11-20T13:18:02.277Z,5.23
2022-11-20T13:21:16.025Z,5.31
2022-11-20T13:24:25.369Z,5.61
2022-11-20T13:27:31.862Z,5.69
2022-11-20T13:30:36.917Z,5.70
2022-11-20T13:33:41.437Z,5.72
2022-11-20T13:36:52.613Z,5.70
2022-11-20T13:39:55.363Z,5.37
2022-11-20T13:43:04.104Z,5.51
2022-11-20T13:46:09.254Z,5.52
2022-11-20T13:49:26.402Z,5.52
2022-11-20T13:52:44.489Z,5.64
2022-11-20T13:55:53.154Z,5.66
2022-11-20T13:59:05.416Z,5.45
2022-11-20T14:02:13.852Z,5.56
2022-11-20T14:05:23.437Z,5.68
2022-11-20T14:08:33.190Z,5.62
2022-11-20T14:11:36.089Z,5.65
2022-11-20T14:14:50.953Z,5.73
2022-11-20T14:17:53.712Z,5.72
2022-11-20T14:20:57.811Z,5.70
2022-11-20T14:24:08.228Z,5.62
2022-11-20T14:27:15.586Z,5.66
2022-11-20T14:30:21.150Z,5.61
2022-11-20T14:33:26.363Z,5.57
2022-11-20T14:36:30.544Z,5.45
2022-11-20T14:39:36.529Z,5.50
2022-11-20T14:42:39.193Z,5.44
2022-11-20T14:45:42.079Z,5.56
2022-11-20T14:48:48.764Z,5.46
2022-11-20T14:52:02.236Z,5.49
2022-11-20T14:55:05.512Z,5.44
2022-11-20T14:58:22.593Z,5.47
2022-11-20T15:01:28.609Z,5.43
2022-11-20T15:04:31.434Z,5.41
2022-11-20T15:07:37.307Z,5.42
2022-11-20T15:10:40.933Z,5.31
2022-11-20T15:13:43.714Z,5.34
2022-11-20T15:16:46.721Z,5.29
2022-11-20T15:19:49.427Z,5.18
2022-11-20T15:22:53.525Z,5.34
2022-11-20T15:25:56.940Z,5.29
2022-11-20T15:28:59.838Z,5.33
2022-11-20T15:32:02.620Z,5.29
2022-11-20T15:35:06.043Z,5.38
2022-11-20T15:38:10.221Z,5.32
2022-11-20T15:41:12.921Z,5.45
2022-11-20T15:44:15.749Z,5.50
2022-11-20T15:47:19.430Z,5.43
2022-11-20T15:50:22.857Z,5.43
2022-11-20T15:53:27.152Z,5.40
2022-11-20T15:56:30.273Z,5.42
2022-11-20T15:59:33.043Z,5.24
2022-11-20T16:02:35.865Z,5.21
2022-11-20T16:05:38.837Z,5.28
2022-11-20T16:08:43.208Z,5.25
2022-11-20T16:11:45.911Z,5.20
2022-11-20T16:15:10.789Z,5.21
2022-11-20T16:18:19.353Z,5.22
2022-11-20T16:21:22.117Z,5.17
2022-11-20T16:24:26.473Z,5.18
2022-11-20T16:27:29.246Z,5.19
2022-11-20T16:30:33.008Z,5.23
2022-11-20T16:33:35.627Z,5.20
2022-11-20T16:36:41.825Z,5.18
2022-11-20T16:39:45.901Z,5.12
2022-11-20T16:42:48.643Z,5.14
2022-11-20T16:45:51.274Z,5.11
2022-11-20T16:48:58.233Z,5.13
2022-11-20T16:52:01.164Z,4.99
2022-11-20T16:55:06.131Z,4.94
2022-11-20T16:58:09.265Z,4.98
2022-11-20T17:01:14.581Z,4.91
2022-11-20T17:04:18.429Z,4.99
2022-11-20T17:07:21.144Z,4.99
2022-11-20T17:10:25.182Z,4.94
2022-11-20T17:13:27.899Z,4.95
2022-11-20T17:16:31.391Z,4.98
2022-11-20T17:19:34.048Z,4.95
2022-11-20T17:22:36.665Z,4.95
2022-11-20T17:25:40.673Z,4.89
2022-11-20T17:28:43.509Z,4.92
2022-11-20T17:31:47.389Z,4.96
2022-11-20T17:34:50.023Z,4.99
2022-11-20T17:37:52.665Z,4.91
2022-11-20T17:41:03.081Z,4.84
2022-11-20T17:44:06.005Z,4.84
2022-11-20T17:47:08.671Z,4.89
2022-11-20T17:50:11.436Z,4.86
2022-11-20T17:53:14.090Z,4.80
2022-11-20T17:56:35.633Z,4.75
2022-11-20T17:59:39.264Z,4.72
2022-11-20T18:02:41.876Z,4.58
2022-11-20T18:05:44.503Z,4.57
2022-11-20T18:08:48.043Z,4.41
2022-11-20T18:11:52.067Z,4.29
2022-11-20T18:14:54.702Z,4.21
2022-11-20T18:17:57.345Z,4.15
2022-11-20T18:21:00.334Z,4.19
2022-11-20T18:24:03.131Z,4.05
2022-11-20T18:27:08.569Z,4.13
2022-11-20T18:30:12.938Z,4.12
2022-11-20T18:33:15.581Z,4.04
2022-11-20T18:36:20.076Z,3.92
2022-11-20T18:39:23.550Z,3.84
2022-11-20T18:42:45.307Z,3.41
2022-11-20T18:45:47.951Z,3.33
2022-11-20T18:48:50.531Z,3.26
2022-11-20T18:51:53.161Z,3.24
2022-11-20T18:54:56.308Z,3.15
2022-11-20T18:58:00.281Z,3.38
2022-11-20T19:01:07.025Z,2.96
2022-11-20T19:04:11.004Z,2.97
2022-11-20T19:07:13.984Z,3.17
2022-11-20T19:10:20.064Z,3.34
2022-11-20T19:13:24.029Z,3.32
2022-11-20T19:16:26.657Z,3.48
2022-11-20T19:19:29.325Z,3.61
2022-11-20T19:22:31.948Z,3.71
2022-11-20T19:25:38.073Z,3.85
2022-11-20T19:28:42.418Z,3.81
2022-11-20T19:31:45.114Z,3.81
2022-11-20T19:34:47.713Z,3.92
2022-11-20T19:37:50.331Z,3.92
2022-11-20T19:40:52.982Z,3.83
2022-11-20T19:43:58.304Z,3.94
2022-11-20T19:47:03.013Z,3.99
2022-11-20T19:50:06.318Z,3.96
2022-11-20T19:53:11.241Z,4.06
2022-11-20T19:56:13.993Z,3.92
2022-11-20T19:59:18.284Z,3.98
2022-11-20T20:02:20.917Z,3.98
2022-11-20T20:05:23.805Z,3.93
2022-11-20T20:08:26.392Z,3.95
2022-11-20T20:11:31.337Z,4.01
2022-11-20T20:14:35.585Z,3.93
2022-11-20T20:17:38.236Z,3.83
2022-11-20T20:20:40.864Z,3.73
2022-11-20T20:23:44.071Z,3.71
2022-11-20T20:26:46.692Z,3.78
2022-11-20T20:29:50.656Z,3.78
2022-11-20T20:32:56.298Z,3.81
2022-11-20T20:35:59.782Z,3.79
2022-11-20T20:39:03.270Z,3.77
2022-11-20T20:42:06.250Z,3.82
2022-11-20T20:45:11.865Z,3.81
2022-11-20T20:48:14.793Z,3.76
2022-11-20T20:51:17.552Z,3.70
2022-11-20T20:54:20.251Z,3.69
2022-11-20T20:57:23.701Z,3.67
2022-11-20T21:00:27.640Z,3.58
2022-11-20T21:03:33.010Z,3.53
2022-11-20T21:06:35.827Z,3.38
2022-11-20T21:09:38.549Z,3.45
2022-11-20T21:12:41.182Z,3.37
2022-11-20T21:15:47.722Z,3.32
2022-11-20T21:18:50.322Z,3.16
2022-11-20T21:22:03.121Z,3.14
2022-11-20T21:25:06.347Z,3.35
2022-11-20T21:28:13.087Z,3.28
2022-11-20T21:31:21.917Z,3.32
2022-11-20T21:34:26.372Z,3.30
2022-11-20T21:37:29.164Z,3.28
2022-11-20T21:40:31.824Z,3.32
2022-11-20T21:43:34.619Z,3.33
2022-11-20T21:46:40.651Z,3.31
2022-11-20T21:49:43.296Z,3.34
2022-11-20T21:52:45.958Z,3.32
2022-11-20T21:55:54.696Z,3.20
2022-11-20T21:58:58.118Z,3.22
2022-11-20T22:02:02.217Z,3.29
2022-11-20T22:05:05.220Z,3.27
2022-11-20T22:08:07.893Z,3.19
2022-11-20T22:11:13.124Z,3.24
2022-11-20T22:14:21.734Z,3.19
2022-11-20T22:17:39.903Z,3.19
2022-11-20T22:20:42.705Z,3.07
2022-11-20T22:23:45.427Z,3.13
2022-11-20T22:26:48.444Z,3.08
2022-11-20T22:29:51.067Z,3.01
2022-11-20T22:32:56.289Z,3.02
2022-11-20T22:36:02.652Z,3.01
2022-11-20T22:39:05.831Z,3.11
2022-11-20T22:42:08.448Z,2.92
2022-11-20T22:45:11.890Z,2.88
2022-11-20T22:48:15.901Z,2.96
2022-11-20T22:51:20.729Z,2.80
2022-11-20T22:54:23.600Z,2.73
2022-11-20T22:57:26.321Z,2.76
2022-11-20T23:00:28.985Z,2.83
2022-11-20T23:03:32.961Z,2.70
2022-11-20T23:06:35.794Z,2.77
2022-11-20T23:09:38.414Z,2.60
2022-11-20T23:12:41.046Z,2.71
2022-11-20T23:15:43.670Z,2.66
2022-11-20T23:18:47.733Z,2.73
2022-11-20T23:21:50.371Z,2.56
2022-11-20T23:24:52.977Z,2.56
2022-11-20T23:27:55.616Z,2.49
2022-11-20T23:30:58.502Z,2.52
2022-11-20T23:34:02.581Z,2.68
2022-11-20T23:37:05.184Z,2.74
2022-11-20T23:40:09.265Z,2.58
2022-11-20T23:43:18.172Z,2.40
2022-11-20T23:46:20.824Z,2.43
2022-11-20T23:49:24.833Z,2.40
2022-11-20T23:52:27.462Z,2.38
2022-11-20T23:55:30.324Z,2.43
2022-11-20T23:58:34.918Z,2.38
